Time;durP1;ratioP1;P1;durP2;ratioP2;P2;SDS_P1;SDS_P2;PMS_P1;PMS_P2;Temp;Humidity;BMP_temperature;BMP_pressure;BME280_temperature;BME280_humidity;BME280_pressure;Samples;Min_cycle;Max_cycle;Signal;HPM_P1;HPM_P2
2022/05/10 00:01:07;;;;;;;2.78;2.10;;;21.30;45.20;;;;;;4947014;28;20128;-62
2022/05/10 00:03:35;;;;;;;3.25;1.90;;;21.30;45.20;;;;;;4961419;28;20058;-60
2022/05/10 00:06:02;;;;;;;3.85;2.10;;;21.30;45.20;;;;;;4947265;28;20082;-61
2022/05/10 00:08:28;;;;;;;3.00;1.83;;;21.30;45.10;;;;;;4945724;29;20080;-60
2022/05/10 00:10:56;;;;;;;4.43;2.20;;;21.30;45.10;;;;;;4947059;29;20039;-62
2022/05/10 00:13:23;;;;;;;3.30;1.77;;;21.30;45.20;;;;;;4946604;29;20133;-59
2022/05/10 00:15:49;;;;;;;2.13;1.48;;;21.30;45.00;;;;;;4947252;29;20051;-61
2022/05/10 00:18:16;;;;;;;2.40;1.92;;;21.30;45.00;;;;;;4947697;28;20388;-61
2022/05/10 00:20:44;;;;;;;4.07;1.80;;;21.20;45.00;;;;;;4948380;28;20039;-61
2022/05/10 00:23:10;;;;;;;3.15;1.92;;;21.20;45.00;;;;;;4945939;29;20499;-61
2022/05/10 00:25:37;;;;;;;2.53;1.90;;;21.20;44.90;;;;;;4947683;28;20037;-62
2022/05/10 00:28:03;;;;;;;3.10;2.10;;;21.30;45.00;;;;;;4947962;28;20071;-61
2022/05/10 00:30:28;;;;;;;2.20;1.63;;;21.20;44.90;;;;;;4946728;28;20126;-60
2022/05/10 00:32:54;;;;;;;3.83;1.88;;;21.20;44.90;;;;;;4947957;29;20051;-61
2022/05/10 00:35:24;;;;;;;1.88;1.40;;;21.20;45.00;;;;;;4948295;29;20114;-60
2022/05/10 00:37:51;;;;;;;3.13;1.80;;;21.20;45.00;;;;;;4947492;29;20044;-61
2022/05/10 00:40:21;;;;;;;3.15;1.80;;;21.20;45.00;;;;;;4947290;28;20170;-62
2022/05/10 00:43:16;;;;;;;3.38;2.00;;;21.20;45.00;;;;;;4946640;28;20051;-61
2022/05/10 00:46:03;;;;;;;3.95;1.70;;;21.20;45.00;;;;;;4947344;29;20066;-62
2022/05/10 00:49:11;;;;;;;3.25;1.58;;;21.20;45.10;;;;;;4946494;29;20041;-61
2022/05/10 00:51:43;;;;;;;2.47;1.70;;;21.20;44.90;;;;;;4946219;29;20156;-63
2022/05/10 00:54:26;;;;;;;4.85;1.88;;;21.20;45.00;;;;;;4947472;29;20053;-61
2022/05/10 00:57:31;;;;;;;4.03;2.13;;;21.20;45.00;;;;;;4945664;29;20043;-60
2022/05/10 01:00:03;;;;;;;1.95;1.70;;;21.20;45.00;;;;;;4946600;29;20900;-61
2022/05/10 01:02:52;;;;;;;2.90;2.00;;;21.20;45.10;;;;;;4946287;29;20043;-61
2022/05/10 01:05:27;;;;;;;3.22;1.85;;;21.20;45.00;;;;;;4945590;29;20126;-63
2022/05/10 01:07:52;;;;;;;3.72;1.98;;;21.20;45.10;;;;;;4947245;29;20117;-61
2022/05/10 01:10:47;;;;;;;3.22;1.80;;;21.20;45.00;;;;;;4951806;28;20054;-61
2022/05/10 01:13:43;;;;;;;3.05;1.90;;;21.20;45.00;;;;;;4945524;29;20122;-61
2022/05/10 01:16:16;;;;;;;3.10;1.70;;;21.20;45.00;;;;;;4947153;28;20121;-61
2022/05/10 01:18:42;;;;;;;3.47;1.88;;;21.10;45.00;;;;;;4945260;29;20851;-62
2022/05/10 01:21:19;;;;;;;5.50;2.05;;;21.20;45.00;;;;;;4947087;29;20054;-62
2022/05/10 01:24:13;;;;;;;2.45;1.88;;;21.10;45.00;;;;;;4945666;29;20652;-61
2022/05/10 01:27:12;;;;;;;3.55;1.75;;;21.10;45.00;;;;;;4945795;28;20035;-62
2022/05/10 01:29:44;;;;;;;3.88;1.80;;;21.10;45.00;;;;;;4943404;29;20514;-62
2022/05/10 01:35:04;;;;;;;3.53;2.10;;;21.10;45.00;;;;;;4945873;29;20150;-61
2022/05/10 01:37:36;;;;;;;3.20;2.00;;;21.10;45.00;;;;;;4946003;28;20054;-61
2022/05/10 01:40:16;;;;;;;2.30;1.80;;;21.10;45.00;;;;;;4945988;29;20287;-61
2022/05/10 01:42:55;;;;;;;3.55;1.95;;;21.10;45.00;;;;;;4960800;28;20054;-61
2022/05/10 01:45:31;;;;;;;2.83;1.70;;;21.10;45.10;;;;;;4946711;29;20075;-63
2022/05/10 01:48:00;;;;;;;2.25;1.80;;;21.10;45.10;;;;;;4945979;29;20699;-60
2022/05/10 01:50:32;;;;;;;2.90;1.92;;;21.10;45.80;;;;;;4945999;28;20454;-60
2022/05/10 01:53:15;;;;;;;2.65;2.30;;;21.10;45.00;;;;;;4946604;29;20051;-62
2022/05/10 01:55:43;;;;;;;3.22;1.95;;;21.10;45.00;;;;;;4961568;28;20082;-61
2022/05/10 01:58:15;;;;;;;3.30;2.30;;;21.10;45.10;;;;;;4946043;28;20145;-61
2022/05/10 02:00:45;;;;;;;3.63;2.05;;;21.10;45.00;;;;;;4940325;28;20043;-62
2022/05/10 02:03:30;;;;;;;5.70;2.50;;;21.10;45.00;;;;;;4940671;29;20035;-62
2022/05/10 02:06:15;;;;;;;2.53;2.08;;;21.10;45.00;;;;;;4956473;28;20051;-61
2022/05/10 02:09:17;;;;;;;3.70;2.03;;;21.10;45.00;;;;;;4919258;28;20047;-61
2022/05/10 02:12:22;;;;;;;5.60;2.03;;;21.10;45.00;;;;;;4939761;28;20058;-61
2022/05/10 02:15:12;;;;;;;3.80;2.00;;;21.10;45.00;;;;;;4944152;29;20087;-61
2022/05/10 02:17:53;;;;;;;2.63;1.83;;;21.10;45.00;;;;;;4944948;28;20078;-62
2022/05/10 02:20:30;;;;;;;3.83;2.13;;;21.10;45.00;;;;;;4943729;29;20134;-63
2022/05/10 02:23:34;;;;;;;2.83;1.90;;;21.10;45.00;;;;;;4939638;29;20707;-63
2022/05/10 02:26:06;;;;;;;2.92;2.10;;;21.10;45.00;;;;;;4946417;29;20475;-61
2022/05/10 02:28:50;;;;;;;2.90;1.85;;;21.10;45.00;;;;;;4945964;29;20401;-61
2022/05/10 02:33:06;;;;;;;4.05;1.98;;;21.10;45.10;;;;;;4945108;29;20547;-61
2022/05/10 02:34:29;;;;;;;5.07;2.10;;;21.10;45.00;;;;;;4946380;29;20086;-61
2022/05/10 02:36:54;;;;;;;4.60;2.40;;;21.10;45.00;;;;;;4946578;28;20058;-61
2022/05/10 02:39:20;;;;;;;4.20;2.25;;;21.10;45.20;;;;;;4944598;28;20039;-63
2022/05/10 02:41:46;;;;;;;3.75;2.30;;;21.10;45.10;;;;;;4945951;28;20597;-61
2022/05/10 02:44:12;;;;;;;2.55;1.88;;;21.10;45.10;;;;;;4946050;28;20058;-63
2022/05/10 02:46:37;;;;;;;3.05;1.92;;;21.10;45.10;;;;;;4946053;29;20412;-61
2022/05/10 02:49:03;;;;;;;2.75;2.22;;;21.10;45.10;;;;;;4947316;28;20039;-62
2022/05/10 02:51:29;;;;;;;2.80;2.00;;;21.10;45.10;;;;;;4948256;28;20134;-61
2022/05/10 02:53:55;;;;;;;3.60;2.13;;;21.10;45.10;;;;;;4948963;29;20082;-62
2022/05/10 02:56:24;;;;;;;3.38;2.47;;;21.10;45.10;;;;;;4949895;29;20703;-61
2022/05/10 02:58:59;;;;;;;3.72;2.22;;;21.10;45.10;;;;;;4949802;28;20160;-61
2022/05/10 03:01:43;;;;;;;4.22;2.05;;;21.10;45.10;;;;;;4947939;28;20483;-62
2022/05/10 03:04:10;;;;;;;5.13;2.15;;;21.10;45.10;;;;;;4947970;29;20039;-60
2022/05/10 03:06:38;;;;;;;3.63;2.30;;;21.10;45.10;;;;;;4950077;29;20145;-60
2022/05/10 03:09:05;;;;;;;4.18;2.55;;;21.10;45.10;;;;;;4949293;29;20062;-61
2022/05/10 03:11:31;;;;;;;3.42;2.10;;;21.00;45.10;;;;;;4963315;28;20226;-61
2022/05/10 03:13:58;;;;;;;3.58;2.30;;;21.00;45.10;;;;;;4949427;29;20035;-60
2022/05/10 03:16:24;;;;;;;3.30;2.35;;;21.00;45.10;;;;;;4947810;29;20054;-61
2022/05/10 03:18:52;;;;;;;2.85;2.28;;;21.10;45.20;;;;;;4947803;28;20058;-60
2022/05/10 03:21:18;;;;;;;3.60;2.00;;;21.00;45.10;;;;;;4948646;29;20043;-61
2022/05/10 03:23:44;;;;;;;3.85;2.58;;;21.00;45.20;;;;;;4939009;28;20264;-63
2022/05/10 03:26:11;;;;;;;3.05;1.95;;;21.00;45.10;;;;;;4949174;28;20521;-61
2022/05/10 03:28:37;;;;;;;3.67;2.55;;;21.00;45.20;;;;;;4948793;28;20502;-62
2022/05/10 03:31:05;;;;;;;3.38;2.53;;;21.00;45.20;;;;;;4949305;28;20043;-61
2022/05/10 03:33:30;;;;;;;4.13;2.42;;;21.00;45.20;;;;;;4938683;28;20162;-61
2022/05/10 03:35:56;;;;;;;3.42;2.20;;;21.00;45.20;;;;;;4948712;28;20126;-61
2022/05/10 03:38:22;;;;;;;3.45;2.22;;;21.00;45.20;;;;;;4948802;28;20054;-62
2022/05/10 03:40:47;;;;;;;3.78;2.55;;;21.00;45.20;;;;;;4949055;28;20047;-61
2022/05/10 03:43:13;;;;;;;3.53;2.38;;;21.00;45.20;;;;;;4948507;28;20547;-62
2022/05/10 03:45:38;;;;;;;3.03;2.17;;;21.00;45.20;;;;;;4947741;28;20059;-62
2022/05/10 03:48:05;;;;;;;3.85;2.58;;;21.00;45.30;;;;;;4947873;28;20039;-60
2022/05/10 03:50:30;;;;;;;5.28;2.38;;;21.00;45.20;;;;;;4953745;28;20909;-61
2022/05/10 03:52:56;;;;;;;4.88;2.47;;;21.00;45.20;;;;;;4947750;29;20043;-61
2022/05/10 03:55:27;;;;;;;3.00;2.30;;;21.00;45.20;;;;;;4948387;28;20044;-61
2022/05/10 03:57:54;;;;;;;4.65;2.40;;;21.00;45.30;;;;;;4947757;28;20039;-63
2022/05/10 04:00:28;;;;;;;3.78;2.30;;;21.00;45.30;;;;;;4944095;28;20443;-62
2022/05/10 04:02:58;;;;;;;3.58;2.42;;;21.00;45.30;;;;;;4943563;28;20039;-62
2022/05/10 04:05:27;;;;;;;3.25;2.53;;;21.00;45.30;;;;;;4944336;29;20070;-62
2022/05/10 04:07:53;;;;;;;3.97;2.65;;;21.00;45.30;;;;;;4944782;29;20051;-63
2022/05/10 04:10:23;;;;;;;2.75;2.38;;;21.00;45.30;;;;;;4947987;28;20046;-61
2022/05/10 04:12:48;;;;;;;3.28;2.58;;;21.00;45.30;;;;;;4930769;29;20047;-61
2022/05/10 04:15:16;;;;;;;4.60;2.70;;;21.00;45.30;;;;;;4946378;28;20401;-61
2022/05/10 04:17:43;;;;;;;3.20;2.35;;;21.00;45.30;;;;;;4947202;29;20739;-61
2022/05/10 04:20:10;;;;;;;3.05;2.42;;;21.00;45.30;;;;;;4939449;28;20039;-61
2022/05/10 04:22:36;;;;;;;3.30;2.53;;;21.00;45.30;;;;;;4950024;28;20035;-61
2022/05/10 04:25:02;;;;;;;3.90;2.53;;;21.00;45.30;;;;;;4946990;28;20043;-60
2022/05/10 04:27:28;;;;;;;4.53;2.58;;;21.00;45.40;;;;;;4944992;29;20118;-61
2022/05/10 04:29:53;;;;;;;4.80;2.35;;;21.00;45.40;;;;;;4945476;29;20476;-61
2022/05/10 04:32:19;;;;;;;3.53;2.83;;;21.00;45.40;;;;;;4947829;28;20043;-62
2022/05/10 04:34:45;;;;;;;3.80;2.78;;;21.00;45.40;;;;;;4945283;28;20143;-61
2022/05/10 04:37:11;;;;;;;3.15;2.60;;;21.00;45.30;;;;;;4944916;28;20420;-61
2022/05/10 04:42:21;;;;;;;3.70;2.55;;;21.00;45.40;;;;;;4946828;29;20596;-62
2022/05/10 04:44:46;;;;;;;2.90;2.50;;;21.00;45.40;;;;;;4945646;28;20119;-61
2022/05/10 04:47:12;;;;;;;4.30;2.67;;;21.00;45.40;;;;;;4945474;28;20043;-61
2022/05/10 04:49:37;;;;;;;2.72;2.53;;;21.00;45.40;;;;;;4946352;28;20475;-63
2022/05/10 04:52:03;;;;;;;4.05;2.67;;;20.90;45.30;;;;;;4946806;28;20038;-63
2022/05/10 04:54:29;;;;;;;2.80;2.50;;;20.90;45.30;;;;;;4945976;28;20425;-61
2022/05/10 04:56:54;;;;;;;3.30;2.30;;;20.90;45.40;;;;;;4946936;28;20050;-62
2022/05/10 04:59:20;;;;;;;3.10;2.67;;;20.90;45.40;;;;;;4947147;28;20170;-63
2022/05/10 05:01:45;;;;;;;3.95;2.42;;;20.90;45.40;;;;;;4947055;28;20407;-61
2022/05/10 05:04:11;;;;;;;3.97;2.60;;;21.00;45.50;;;;;;4945651;28;20058;-61
2022/05/10 05:06:39;;;;;;;5.38;2.50;;;20.90;45.40;;;;;;4946787;28;20038;-62
2022/05/10 05:09:06;;;;;;;3.15;2.40;;;20.90;45.50;;;;;;4943531;28;20062;-61
2022/05/10 05:11:32;;;;;;;4.90;2.72;;;20.90;45.50;;;;;;4943078;28;20070;-62
2022/05/10 05:13:58;;;;;;;2.92;2.65;;;21.00;45.60;;;;;;4945040;28;20090;-61
2022/05/10 05:16:23;;;;;;;3.95;2.88;;;21.00;45.60;;;;;;4945290;28;20051;-62
2022/05/10 05:18:49;;;;;;;3.90;2.85;;;20.90;45.60;;;;;;4945321;28;20388;-62
2022/05/10 05:21:15;;;;;;;3.78;2.53;;;21.00;45.60;;;;;;4943722;28;20035;-61
2022/05/10 05:23:41;;;;;;;4.80;2.50;;;20.90;46.30;;;;;;4944835;28;20126;-59
2022/05/10 05:26:07;;;;;;;5.43;2.65;;;20.90;45.50;;;;;;4943579;28;20053;-61
2022/05/10 05:28:33;;;;;;;3.03;2.67;;;20.90;45.50;;;;;;4944865;28;20051;-62
2022/05/10 05:30:59;;;;;;;2.95;2.70;;;20.90;45.50;;;;;;4945069;28;20074;-61
2022/05/10 05:33:25;;;;;;;4.03;2.45;;;20.90;45.50;;;;;;4944039;28;20106;-61
2022/05/10 05:35:51;;;;;;;4.03;2.70;;;20.90;45.80;;;;;;4945077;28;20312;-58
2022/05/10 05:38:16;;;;;;;4.53;2.42;;;21.00;46.20;;;;;;4944239;28;20586;-63
2022/05/10 05:40:42;;;;;;;5.88;3.10;;;20.90;46.10;;;;;;4943086;28;20443;-62
2022/05/10 05:43:14;;;;;;;16.15;3.92;;;21.00;46.30;;;;;;4945558;28;20047;-60
2022/05/10 05:45:40;;;;;;;5.85;4.00;;;21.00;46.30;;;;;;4945138;28;20042;-59
2022/05/10 05:48:06;;;;;;;7.60;4.63;;;21.00;46.30;;;;;;4944064;28;20522;-61
2022/05/10 05:50:31;;;;;;;7.63;4.60;;;21.00;46.20;;;;;;4944678;29;20039;-60
2022/05/10 05:52:58;;;;;;;6.47;5.22;;;20.90;46.30;;;;;;4944872;29;20078;-59
2022/05/10 05:55:23;;;;;;;6.35;5.05;;;20.90;46.40;;;;;;4943347;28;20035;-60
2022/05/10 05:57:49;;;;;;;7.45;5.45;;;20.90;46.40;;;;;;4943814;29;20050;-61
2022/05/10 06:00:19;;;;;;;5.85;4.95;;;20.90;46.50;;;;;;4943693;28;20039;-62
2022/05/10 06:02:45;;;;;;;6.25;4.82;;;20.90;46.50;;;;;;4958642;28;20046;-61
2022/05/10 06:05:11;;;;;;;7.07;4.72;;;20.90;46.50;;;;;;4943710;29;20146;-60
2022/05/10 06:07:37;;;;;;;5.93;4.30;;;20.90;46.60;;;;;;4943942;28;20134;-61
2022/05/10 06:10:03;;;;;;;6.63;4.60;;;20.90;46.40;;;;;;4943451;29;20054;-60
2022/05/10 06:12:29;;;;;;;8.38;6.35;;;20.90;46.40;;;;;;4945259;28;20051;-60
2022/05/10 06:14:55;;;;;;;10.63;6.05;;;20.90;46.50;;;;;;4944943;28;20620;-61
2022/05/10 06:17:20;;;;;;;11.88;7.53;;;20.90;46.50;;;;;;4943044;29;20050;-61
2022/05/10 06:19:46;;;;;;;13.82;7.20;;;20.90;46.50;;;;;;4942564;28;20043;-61
2022/05/10 06:22:13;;;;;;;10.88;7.18;;;20.90;46.40;;;;;;4941728;28;20641;-61
2022/05/10 06:24:39;;;;;;;11.35;6.70;;;20.90;46.50;;;;;;4945908;28;20047;-60
2022/05/10 06:27:10;;;;;;;12.18;7.45;;;20.90;46.50;;;;;;4948111;28;20039;-61
2022/05/10 06:29:35;;;;;;;12.40;8.15;;;20.90;46.60;;;;;;4946011;28;20042;-61
2022/05/10 06:32:01;;;;;;;15.93;8.15;;;20.80;46.70;;;;;;4947461;28;20035;-61
2022/05/10 06:34:26;;;;;;;10.02;7.57;;;20.80;46.80;;;;;;4936790;28;20100;-62
2022/05/10 06:36:52;;;;;;;9.63;7.30;;;20.80;46.90;;;;;;4946103;28;20058;-61
2022/05/10 06:39:18;;;;;;;9.57;7.25;;;20.80;46.90;;;;;;4947195;28;20055;-63
2022/05/10 06:41:44;;;;;;;12.40;7.95;;;20.80;47.00;;;;;;4949964;28;20058;-61
2022/05/10 06:44:10;;;;;;;11.13;7.40;;;20.80;47.00;;;;;;4948409;28;20043;-60
2022/05/10 06:46:37;;;;;;;7.78;6.32;;;20.80;47.00;;;;;;4948013;28;20043;-60
2022/05/10 06:49:04;;;;;;;11.15;7.40;;;20.80;46.90;;;;;;4944500;28;20445;-60
2022/05/10 06:51:30;;;;;;;8.45;6.82;;;20.80;47.10;;;;;;4944546;29;20185;-61
2022/05/10 06:53:55;;;;;;;11.90;8.10;;;20.80;47.10;;;;;;4947800;28;20118;-62
2022/05/10 06:56:22;;;;;;;14.98;7.53;;;20.80;47.30;;;;;;4948066;28;20043;-61
2022/05/10 06:58:49;;;;;;;11.98;7.40;;;20.80;47.40;;;;;;4945092;28;20058;-61
2022/05/10 07:01:15;;;;;;;8.43;5.88;;;20.80;47.40;;;;;;4945695;28;20051;-62
2022/05/10 07:03:49;;;;;;;8.45;6.40;;;20.80;47.30;;;;;;4945358;28;20048;-60
2022/05/10 07:06:18;;;;;;;7.45;6.07;;;20.80;47.30;;;;;;4944205;29;20043;-60
2022/05/10 07:08:44;;;;;;;9.68;7.25;;;20.80;47.30;;;;;;4944445;29;20059;-60
2022/05/10 07:11:10;;;;;;;10.10;6.95;;;20.80;47.30;;;;;;4947066;28;20035;-61
2022/05/10 07:13:36;;;;;;;9.35;6.80;;;20.80;47.40;;;;;;4948251;28;20407;-62
2022/05/10 07:16:03;;;;;;;10.43;6.72;;;20.90;47.50;;;;;;4943919;28;20061;-61
2022/05/10 07:18:29;;;;;;;7.03;5.45;;;20.80;47.40;;;;;;4946616;28;20043;-60
2022/05/10 07:20:55;;;;;;;6.47;5.25;;;20.90;47.40;;;;;;4946212;28;20053;-60
2022/05/10 07:23:30;;;;;;;7.07;4.88;;;20.90;47.30;;;;;;4946855;28;20118;-60
2022/05/10 07:25:56;;;;;;;8.00;5.50;;;20.90;47.20;;;;;;4947013;28;20054;-62
2022/05/10 07:28:23;;;;;;;6.10;5.35;;;20.90;47.20;;;;;;4946781;28;20527;-60
2022/05/10 07:30:48;;;;;;;7.78;4.70;;;20.90;47.20;;;;;;4945204;28;20043;-60
2022/05/10 07:33:19;;;;;;;5.82;4.72;;;20.90;47.20;;;;;;4947993;28;20384;-61
2022/05/10 07:38:29;;;;;;;6.53;5.50;;;20.90;47.20;;;;;;4946120;29;20305;-59
2022/05/10 07:40:55;;;;;;;6.15;4.72;;;20.90;47.40;;;;;;4947610;28;20131;-60
2022/05/10 07:43:20;;;;;;;6.45;4.88;;;20.90;47.40;;;;;;4946556;28;20102;-60
2022/05/10 07:45:48;;;;;;;8.35;4.80;;;20.90;47.50;;;;;;4947390;28;20381;-60
2022/05/10 07:48:14;;;;;;;7.90;5.13;;;20.90;47.50;;;;;;4947129;29;20496;-59
2022/05/10 07:50:40;;;;;;;5.80;4.88;;;20.90;47.50;;;;;;4946490;28;20039;-59
2022/05/10 07:53:08;;;;;;;6.20;4.78;;;21.00;47.80;;;;;;4947039;28;20407;-59
2022/05/10 07:55:34;;;;;;;6.90;4.25;;;20.90;47.50;;;;;;4946979;28;20053;-60
2022/05/10 07:58:00;;;;;;;5.63;4.10;;;21.00;47.60;;;;;;4947322;28;20751;-60
2022/05/10 08:00:27;;;;;;;7.15;4.30;;;21.00;47.60;;;;;;4946549;28;20408;-60
2022/05/10 08:02:52;;;;;;;5.45;4.00;;;21.00;47.60;;;;;;4960361;28;20112;-60
2022/05/10 08:05:20;;;;;;;5.70;4.43;;;21.00;47.70;;;;;;4946611;28;20124;-59
2022/05/10 08:07:47;;;;;;;7.93;4.32;;;21.00;47.70;;;;;;4945375;28;20047;-60
2022/05/10 08:10:14;;;;;;;7.07;4.75;;;21.00;47.90;;;;;;4946110;29;20042;-60
2022/05/10 08:12:39;;;;;;;6.28;4.85;;;21.00;48.00;;;;;;4937952;29;20043;-59
2022/05/10 08:15:06;;;;;;;5.65;4.38;;;21.00;48.20;;;;;;4944857;28;20098;-59
2022/05/10 08:17:32;;;;;;;5.28;4.60;;;21.00;48.20;;;;;;4945951;28;20047;-61
2022/05/10 08:19:57;;;;;;;8.07;4.70;;;21.00;48.30;;;;;;4946915;28;20053;-60
2022/05/10 08:22:23;;;;;;;7.47;4.43;;;21.00;48.30;;;;;;4945503;28;20524;-61
2022/05/10 08:24:49;;;;;;;6.03;4.20;;;21.00;48.40;;;;;;4946832;28;20051;-60
2022/05/10 08:27:14;;;;;;;7.28;4.50;;;21.00;48.40;;;;;;4946345;28;20054;-60
2022/05/10 08:29:41;;;;;;;6.03;4.18;;;21.00;48.30;;;;;;4946453;28;20451;-60
2022/05/10 08:32:06;;;;;;;9.05;4.55;;;21.00;48.40;;;;;;4945090;28;20031;-61
2022/05/10 08:34:34;;;;;;;6.05;4.63;;;21.00;48.50;;;;;;4945553;28;20118;-60
2022/05/10 08:37:02;;;;;;;7.80;4.90;;;21.00;48.50;;;;;;4942264;28;20078;-60
2022/05/10 08:39:27;;;;;;;8.70;5.53;;;21.00;48.50;;;;;;4944984;28;20093;-62
2022/05/10 08:41:59;;;;;;;6.90;5.40;;;21.00;48.60;;;;;;4945851;28;20078;-60
2022/05/10 08:44:31;;;;;;;10.90;7.57;;;21.00;48.60;;;;;;4944322;29;20062;-60
2022/05/10 08:47:00;;;;;;;10.15;7.80;;;21.00;48.70;;;;;;4961277;28;20051;-60
2022/05/10 08:49:48;;;;;;;10.32;8.50;;;21.00;48.90;;;;;;4945659;28;20035;-60
2022/05/10 08:52:16;;;;;;;9.27;8.15;;;21.10;48.90;;;;;;4944639;28;20028;-62
2022/05/10 08:54:42;;;;;;;10.35;9.30;;;21.10;48.90;;;;;;4945776;28;20772;-60
2022/05/10 08:57:27;;;;;;;9.77;8.77;;;21.10;49.00;;;;;;4960751;28;20051;-60
2022/05/10 09:00:26;;;;;;;10.18;7.65;;;21.10;49.00;;;;;;4946416;28;20134;-60
2022/05/10 09:02:55;;;;;;;8.85;7.97;;;21.10;49.00;;;;;;4946563;28;20045;-63
2022/05/10 09:05:38;;;;;;;8.75;7.78;;;21.20;49.00;;;;;;4944999;28;20261;-63
2022/05/10 09:08:46;;;;;;;10.15;9.10;;;21.20;48.90;;;;;;4944581;28;20046;-63
2022/05/10 09:11:14;;;;;;;12.50;8.55;;;21.20;49.00;;;;;;4944320;28;20090;-61
2022/05/10 09:13:42;;;;;;;10.20;8.50;;;21.20;49.00;;;;;;4944201;28;20039;-59
2022/05/10 09:16:10;;;;;;;9.13;8.23;;;21.30;49.10;;;;;;4946059;28;20051;-60
2022/05/10 09:18:51;;;;;;;9.57;8.55;;;21.30;49.00;;;;;;4945320;28;20055;-61
2022/05/10 09:21:24;;;;;;;9.40;7.10;;;21.30;49.20;;;;;;4945663;29;20061;-61
2022/05/10 09:24:29;;;;;;;8.25;6.90;;;21.40;49.10;;;;;;4943237;29;20047;-60
2022/05/10 09:27:14;;;;;;;10.30;7.40;;;21.40;49.10;;;;;;4935719;29;20047;-59
2022/05/10 09:29:51;;;;;;;7.95;7.20;;;21.40;49.10;;;;;;4945559;28;20588;-59
2022/05/10 09:35:28;;;;;;;7.53;6.72;;;21.50;49.30;;;;;;4945033;29;20065;-60
2022/05/10 09:38:06;;;;;;;9.55;7.63;;;21.50;49.40;;;;;;4944578;28;20186;-61
2022/05/10 09:40:36;;;;;;;10.20;6.53;;;21.50;49.50;;;;;;4942853;28;20054;-61
2022/05/10 09:43:18;;;;;;;9.90;7.15;;;21.50;49.50;;;;;;4944364;28;20071;-62
2022/05/10 09:45:45;;;;;;;7.68;6.40;;;21.50;49.50;;;;;;4945196;28;20481;-59
2022/05/10 09:48:18;;;;;;;7.55;6.75;;;21.60;49.50;;;;;;4944837;28;20138;-61
2022/05/10 09:50:46;;;;;;;7.10;5.65;;;21.60;49.60;;;;;;4944735;29;20031;-60
2022/05/10 09:53:26;;;;;;;6.72;5.78;;;21.60;49.60;;;;;;4944045;28;20036;-61
2022/05/10 09:56:04;;;;;;;8.82;5.95;;;21.60;49.70;;;;;;4945377;29;20035;-62
2022/05/10 09:58:31;;;;;;;6.95;5.93;;;21.60;49.70;;;;;;4943192;29;20039;-60
2022/05/10 10:00:59;;;;;;;7.95;5.97;;;21.60;49.70;;;;;;4944329;28;20031;-60
2022/05/10 10:03:37;;;;;;;7.13;6.13;;;21.70;49.80;;;;;;4944498;28;20131;-60
2022/05/10 10:06:25;;;;;;;6.32;5.63;;;21.70;50.00;;;;;;4945205;28;20121;-61
2022/05/10 10:08:53;;;;;;;8.75;5.93;;;21.70;50.00;;;;;;4944659;28;20054;-60
2022/05/10 10:11:21;;;;;;;6.78;6.18;;;21.60;50.00;;;;;;4943722;28;20551;-61
2022/05/10 10:14:00;;;;;;;7.55;5.47;;;21.70;50.20;;;;;;4945048;29;20102;-63
2022/05/10 10:16:30;;;;;;;7.45;5.63;;;21.70;50.20;;;;;;4944991;28;20047;-60
2022/05/10 10:19:04;;;;;;;11.07;6.25;;;21.70;50.40;;;;;;4946449;28;20043;-61
2022/05/10 10:21:38;;;;;;;6.20;5.47;;;21.60;50.40;;;;;;4943478;28;20444;-60
2022/05/10 10:24:04;;;;;;;7.32;5.13;;;21.60;50.50;;;;;;4946397;28;20047;-61
2022/05/10 10:26:42;;;;;;;5.78;4.97;;;21.60;50.50;;;;;;4944090;28;20047;-60
2022/05/10 10:29:14;;;;;;;7.28;5.38;;;21.60;50.50;;;;;;4945062;29;20047;-60
2022/05/10 10:31:45;;;;;;;6.25;5.30;;;21.60;50.60;;;;;;4944954;28;20050;-60
2022/05/10 10:34:19;;;;;;;5.10;4.60;;;21.60;50.60;;;;;;4937271;28;20051;-59
2022/05/10 10:37:16;;;;;;;6.20;5.30;;;21.60;50.50;;;;;;4942285;28;20109;-61
2022/05/10 10:40:06;;;;;;;6.32;5.00;;;21.60;50.60;;;;;;4941565;29;20043;-61
2022/05/10 10:42:54;;;;;;;5.32;4.82;;;21.60;50.60;;;;;;4942269;28;20051;-62
2022/05/10 10:45:33;;;;;;;7.22;4.85;;;21.60;50.60;;;;;;4941028;28;20435;-60
2022/05/10 10:48:12;;;;;;;5.72;5.13;;;21.60;50.70;;;;;;4940548;28;20122;-62
2022/05/10 10:50:37;;;;;;;6.03;4.70;;;21.60;50.80;;;;;;4941912;28;20058;-61
2022/05/10 10:53:08;;;;;;;7.95;4.75;;;21.60;50.70;;;;;;4942754;28;20051;-60
2022/05/10 10:55:43;;;;;;;5.25;4.82;;;21.60;50.80;;;;;;4941911;28;20074;-60
2022/05/10 10:58:22;;;;;;;6.97;5.28;;;21.60;50.70;;;;;;4941901;29;20400;-61
2022/05/10 11:01:16;;;;;;;5.50;5.00;;;21.60;50.80;;;;;;4940787;28;20051;-61
2022/05/10 11:03:54;;;;;;;5.97;5.05;;;21.60;50.90;;;;;;4938273;28;20051;-60
2022/05/10 11:06:24;;;;;;;6.72;4.90;;;21.60;51.10;;;;;;4942159;29;20600;-60
2022/05/10 11:09:29;;;;;;;6.27;5.43;;;21.60;51.20;;;;;;4937963;28;20098;-60
2022/05/10 11:12:15;;;;;;;9.95;5.30;;;21.60;51.40;;;;;;4941697;28;20373;-60
2022/05/10 11:15:23;;;;;;;5.53;4.60;;;21.60;51.40;;;;;;4943370;29;20046;-60
2022/05/10 11:18:22;;;;;;;5.60;5.00;;;21.50;51.20;;;;;;4936572;28;20083;-60
2022/05/10 11:21:22;;;;;;;8.05;4.93;;;21.60;51.10;;;;;;4941571;29;20047;-59
2022/05/10 11:24:18;;;;;;;5.80;4.38;;;21.60;50.80;;;;;;4939465;28;20043;-62
2022/05/10 11:27:21;;;;;;;7.45;4.60;;;21.50;50.80;;;;;;4942818;28;20057;-60
2022/05/10 11:30:09;;;;;;;8.23;4.97;;;21.50;50.50;;;;;;4935260;28;20141;-61
2022/05/10 11:33:06;;;;;;;8.27;4.82;;;21.50;49.90;;;;;;4939277;28;20047;-59
2022/05/10 11:35:57;;;;;;;8.55;5.07;;;21.50;49.80;;;;;;4941890;28;20051;-61
2022/05/10 11:38:56;;;;;;;5.88;4.57;;;21.50;49.70;;;;;;4942093;28;20893;-61
2022/05/10 11:41:42;;;;;;;10.20;5.53;;;21.50;49.70;;;;;;4940990;28;20047;-61
2022/05/10 11:44:43;;;;;;;5.28;4.78;;;21.50;49.80;;;;;;4941315;28;20031;-61
2022/05/10 11:47:38;;;;;;;5.20;4.78;;;21.50;49.90;;;;;;4941782;28;20042;-60
2022/05/10 11:50:35;;;;;;;9.80;5.10;;;21.50;50.00;;;;;;4941689;28;20035;-62
2022/05/10 11:53:28;;;;;;;12.77;5.38;;;21.50;50.20;;;;;;4941914;29;20049;-59
2022/05/10 11:55:59;;;;;;;8.32;5.05;;;21.50;50.30;;;;;;4941812;29;20117;-60
2022/05/10 11:58:28;;;;;;;11.27;4.97;;;21.50;50.50;;;;;;4941452;28;20035;-59
2022/05/10 12:00:56;;;;;;;9.60;4.72;;;21.50;50.40;;;;;;4940925;29;20031;-61
2022/05/10 12:03:36;;;;;;;9.00;4.93;;;21.60;50.40;;;;;;4939941;28;20563;-59
2022/05/10 12:06:33;;;;;;;9.50;4.60;;;21.50;50.50;;;;;;4939038;28;21091;-62
2022/05/10 12:09:01;;;;;;;9.93;4.72;;;21.60;50.60;;;;;;4941930;29;20496;-60
2022/05/10 12:11:32;;;;;;;7.03;4.30;;;21.50;50.60;;;;;;4940120;29;20039;-62
2022/05/10 12:22:45;;;;;;;7.28;4.38;;;21.60;50.60;;;;;;4937078;28;20109;-60
2022/05/10 12:25:49;;;;;;;6.28;4.07;;;21.60;50.70;;;;;;4939732;28;20135;-59
2022/05/10 12:28:49;;;;;;;7.95;4.15;;;21.60;50.80;;;;;;4940406;28;20122;-62
2022/05/10 12:31:34;;;;;;;6.03;3.70;;;21.60;50.70;;;;;;4935368;28;20178;-62
2022/05/10 12:34:02;;;;;;;6.35;4.15;;;21.60;50.70;;;;;;4934863;28;20063;-59
2022/05/10 12:36:37;;;;;;;5.47;4.30;;;21.60;50.70;;;;;;4939773;28;20039;-60
2022/05/10 12:39:25;;;;;;;6.88;4.13;;;21.60;50.80;;;;;;4939436;29;20130;-62
2022/05/10 12:42:05;;;;;;;6.43;4.25;;;21.60;50.70;;;;;;4939381;28;20042;-60
2022/05/10 12:44:56;;;;;;;6.90;4.20;;;21.60;50.70;;;;;;4937532;29;20535;-60
2022/05/10 12:47:40;;;;;;;9.73;4.30;;;21.60;50.50;;;;;;4939259;28;20129;-60
2022/05/10 12:50:33;;;;;;;7.55;4.22;;;21.60;50.50;;;;;;4940076;28;20047;-60
2022/05/10 12:52:59;;;;;;;6.35;3.80;;;21.60;50.50;;;;;;4940174;29;20093;-61
2022/05/10 12:55:34;;;;;;;7.18;3.70;;;21.60;50.50;;;;;;4933452;28;20051;-61
2022/05/10 12:58:06;;;;;;;7.97;4.00;;;21.60;50.40;;;;;;4937046;28;20773;-62
2022/05/10 13:00:40;;;;;;;7.10;4.28;;;21.60;50.40;;;;;;4931373;29;20054;-61
2022/05/10 13:03:21;;;;;;;7.32;3.45;;;21.60;50.30;;;;;;4940396;28;20050;-59
2022/05/10 13:06:13;;;;;;;5.75;4.22;;;21.60;50.20;;;;;;4941291;28;20043;-60
2022/05/10 13:08:54;;;;;;;8.65;3.92;;;21.60;50.20;;;;;;4940071;28;20031;-59
2022/05/10 13:11:23;;;;;;;8.25;4.13;;;21.60;50.20;;;;;;4940623;29;20051;-61
2022/05/10 13:13:52;;;;;;;9.35;4.40;;;21.60;49.90;;;;;;4940183;28;20064;-61
2022/05/10 13:16:20;;;;;;;5.43;4.07;;;21.60;49.70;;;;;;4941160;28;20039;-61
2022/05/10 13:18:47;;;;;;;6.00;4.18;;;21.60;49.70;;;;;;4941155;28;20047;-61
2022/05/10 13:21:22;;;;;;;6.80;4.00;;;21.60;49.70;;;;;;4939661;28;20086;-62
2022/05/10 13:23:47;;;;;;;6.18;3.83;;;21.70;49.80;;;;;;4939661;28;20139;-60
2022/05/10 13:26:15;;;;;;;4.53;3.78;;;21.70;49.80;;;;;;4941243;28;21097;-61
2022/05/10 13:28:59;;;;;;;4.55;3.55;;;21.60;49.80;;;;;;4939280;28;20031;-60
2022/05/10 13:31:37;;;;;;;5.25;3.33;;;21.70;49.90;;;;;;4943621;28;20050;-60
2022/05/10 13:34:18;;;;;;;4.63;3.33;;;21.60;49.90;;;;;;4938268;28;20070;-62
2022/05/10 13:36:47;;;;;;;8.70;4.20;;;21.60;50.00;;;;;;4937823;29;20055;-61